LFRT 301030Z AUTO 04009KT 010V080 CAVOK 21/11 Q1019

ElémentsDécodage
LFRT Station météo située sur l'aérodrome de SAINT-BRIEUC Armor
301030Z émis le 30 du mois à 10h30 UTC
AUTO Bulletin édité par un automate
04009KT vent du 040°, 09 noeuds
010V080 vent de direction variable entre 010° et 080°
CAVOK Ceiling And Visibility OK
- Visibilité de 10 Km ou plus
- Pas de nuage au-dessous de 1500m ou au-dessous de l'altitude minimale du secteur la plus élevée (si>1500m) et absence de CB
- pas de temps présent significatif
21/11 température 21°C, point de rosée 11°C
 soit une humidité relative de 53%
Q1019 la pression au niveau de la mer (QNH) est de 1019 hPa